sensor_id;sensor_type;location;lat;lon;timestamp;temperature;humidity
32201;DHT22;18701;45.588;5.288;2023-01-08T00:01:07;11.80;99.90
32201;DHT22;18701;45.588;5.288;2023-01-08T00:03:34;11.80;99.90
32201;DHT22;18701;45.588;5.288;2023-01-08T00:06:01;11.80;99.90
32201;DHT22;18701;45.588;5.288;2023-01-08T00:08:28;11.80;99.90
32201;DHT22;18701;45.588;5.288;2023-01-08T00:10:54;11.70;99.90
32201;DHT22;18701;45.588;5.288;2023-01-08T00:13:20;11.70;99.90
32201;DHT22;18701;45.588;5.288;2023-01-08T00:15:46;11.60;99.90
32201;DHT22;18701;45.588;5.288;2023-01-08T00:18:11;11.60;99.90
32201;DHT22;18701;45.588;5.288;2023-01-08T00:20:40;11.70;99.90
32201;DHT22;18701;45.588;5.288;2023-01-08T00:23:12;11.50;99.90
32201;DHT22;18701;45.588;5.288;2023-01-08T00:25:37;11.60;99.90
32201;DHT22;18701;45.588;5.288;2023-01-08T00:28:03;11.60;99.90
32201;DHT22;18701;45.588;5.288;2023-01-08T00:30:29;11.50;99.90
32201;DHT22;18701;45.588;5.288;2023-01-08T00:32:55;11.50;99.90
32201;DHT22;18701;45.588;5.288;2023-01-08T00:35:20;11.50;99.90
32201;DHT22;18701;45.588;5.288;2023-01-08T00:37:48;11.40;99.90
32201;DHT22;18701;45.588;5.288;2023-01-08T00:40:14;11.30;99.90
32201;DHT22;18701;45.588;5.288;2023-01-08T00:42:40;11.40;99.90
32201;DHT22;18701;45.588;5.288;2023-01-08T00:45:06;11.30;99.90
32201;DHT22;18701;45.588;5.288;2023-01-08T00:47:32;11.50;99.90
32201;DHT22;18701;45.588;5.288;2023-01-08T00:49:58;11.50;99.90
32201;DHT22;18701;45.588;5.288;2023-01-08T00:52:23;11.60;99.90
32201;DHT22;18701;45.588;5.288;2023-01-08T00:54:49;11.70;99.90
32201;DHT22;18701;45.588;5.288;2023-01-08T00:57:15;11.70;99.90
32201;DHT22;18701;45.588;5.288;2023-01-08T00:59:40;11.70;99.90
32201;DHT22;18701;45.588;5.288;2023-01-08T01:02:06;11.70;99.90
32201;DHT22;18701;45.588;5.288;2023-01-08T01:04:32;11.80;99.90
32201;DHT22;18701;45.588;5.288;2023-01-08T01:06:57;11.80;99.90
32201;DHT22;18701;45.588;5.288;2023-01-08T01:09:23;11.90;99.90
32201;DHT22;18701;45.588;5.288;2023-01-08T01:11:48;11.90;99.90
32201;DHT22;18701;45.588;5.288;2023-01-08T01:14:15;11.80;99.90
32201;DHT22;18701;45.588;5.288;2023-01-08T01:16:40;11.90;99.90
32201;DHT22;18701;45.588;5.288;2023-01-08T01:19:07;11.90;99.90
32201;DHT22;18701;45.588;5.288;2023-01-08T01:21:33;11.90;99.90
32201;DHT22;18701;45.588;5.288;2023-01-08T01:24:01;12.00;99.90
32201;DHT22;18701;45.588;5.288;2023-01-08T01:26:27;12.00;99.90
32201;DHT22;18701;45.588;5.288;2023-01-08T01:28:55;12.00;99.90
32201;DHT22;18701;45.588;5.288;2023-01-08T01:31:22;12.00;99.90
32201;DHT22;18701;45.588;5.288;2023-01-08T01:33:51;12.00;99.90
32201;DHT22;18701;45.588;5.288;2023-01-08T01:36:19;12.00;99.90
32201;DHT22;18701;45.588;5.288;2023-01-08T01:38:47;12.00;99.90
32201;DHT22;18701;45.588;5.288;2023-01-08T01:41:25;12.00;99.90
32201;DHT22;18701;45.588;5.288;2023-01-08T01:43:52;11.90;99.90
32201;DHT22;18701;45.588;5.288;2023-01-08T01:46:38;11.90;99.90
32201;DHT22;18701;45.588;5.288;2023-01-08T01:49:09;11.90;99.90
32201;DHT22;18701;45.588;5.288;2023-01-08T01:51:38;11.90;99.90
32201;DHT22;18701;45.588;5.288;2023-01-08T01:54:08;12.00;99.90
32201;DHT22;18701;45.588;5.288;2023-01-08T01:56:35;11.90;99.90
32201;DHT22;18701;45.588;5.288;2023-01-08T01:59:02;11.90;99.90
32201;DHT22;18701;45.588;5.288;2023-01-08T02:01:29;11.90;99.90
32201;DHT22;18701;45.588;5.288;2023-01-08T02:03:55;11.90;99.90
32201;DHT22;18701;45.588;5.288;2023-01-08T02:06:30;11.90;99.90
32201;DHT22;18701;45.588;5.288;2023-01-08T02:09:16;11.90;99.90
32201;DHT22;18701;45.588;5.288;2023-01-08T02:11:52;11.90;99.90
32201;DHT22;18701;45.588;5.288;2023-01-08T02:14:59;11.80;99.90
32201;DHT22;18701;45.588;5.288;2023-01-08T02:22:36;12.00;99.90
32201;DHT22;18701;45.588;5.288;2023-01-08T02:25:29;12.00;99.90
32201;DHT22;18701;45.588;5.288;2023-01-08T02:28:00;12.00;99.90
32201;DHT22;18701;45.588;5.288;2023-01-08T02:30:26;12.00;99.90
32201;DHT22;18701;45.588;5.288;2023-01-08T02:32:52;12.00;99.90
32201;DHT22;18701;45.588;5.288;2023-01-08T02:35:18;12.00;99.90
32201;DHT22;18701;45.588;5.288;2023-01-08T02:37:44;12.10;99.90
32201;DHT22;18701;45.588;5.288;2023-01-08T02:40:24;12.10;99.90
32201;DHT22;18701;45.588;5.288;2023-01-08T02:43:09;12.10;99.90
32201;DHT22;18701;45.588;5.288;2023-01-08T02:45:43;12.10;99.90
32201;DHT22;18701;45.588;5.288;2023-01-08T02:51:19;12.10;99.90
32201;DHT22;18701;45.588;5.288;2023-01-08T02:53:51;12.10;99.90
32201;DHT22;18701;45.588;5.288;2023-01-08T02:56:21;12.10;99.90
32201;DHT22;18701;45.588;5.288;2023-01-08T02:58:49;12.10;99.90
32201;DHT22;18701;45.588;5.288;2023-01-08T03:01:18;12.10;99.90
32201;DHT22;18701;45.588;5.288;2023-01-08T03:03:49;12.10;99.90
32201;DHT22;18701;45.588;5.288;2023-01-08T03:06:18;12.10;99.90
32201;DHT22;18701;45.588;5.288;2023-01-08T03:08:47;12.10;99.90
32201;DHT22;18701;45.588;5.288;2023-01-08T03:11:16;12.10;99.90
32201;DHT22;18701;45.588;5.288;2023-01-08T03:16:36;12.10;99.90
32201;DHT22;18701;45.588;5.288;2023-01-08T03:21:41;12.10;99.90
32201;DHT22;18701;45.588;5.288;2023-01-08T03:24:08;12.20;99.90
32201;DHT22;18701;45.588;5.288;2023-01-08T03:26:37;12.10;99.90
32201;DHT22;18701;45.588;5.288;2023-01-08T03:29:04;12.20;99.90
32201;DHT22;18701;45.588;5.288;2023-01-08T03:31:32;12.10;99.90
32201;DHT22;18701;45.588;5.288;2023-01-08T03:34:01;12.10;99.90
32201;DHT22;18701;45.588;5.288;2023-01-08T03:36:29;12.10;99.90
32201;DHT22;18701;45.588;5.288;2023-01-08T03:38:59;12.10;99.90
32201;DHT22;18701;45.588;5.288;2023-01-08T03:41:30;12.10;99.90
32201;DHT22;18701;45.588;5.288;2023-01-08T03:43:57;12.10;99.90
32201;DHT22;18701;45.588;5.288;2023-01-08T03:46:33;12.10;99.90
32201;DHT22;18701;45.588;5.288;2023-01-08T03:49:00;12.10;99.90
32201;DHT22;18701;45.588;5.288;2023-01-08T03:51:26;12.10;99.90
32201;DHT22;18701;45.588;5.288;2023-01-08T03:53:55;12.00;99.90
32201;DHT22;18701;45.588;5.288;2023-01-08T03:56:22;12.00;99.90
32201;DHT22;18701;45.588;5.288;2023-01-08T03:58:48;12.10;99.90
32201;DHT22;18701;45.588;5.288;2023-01-08T04:01:14;12.10;99.90
32201;DHT22;18701;45.588;5.288;2023-01-08T04:03:39;12.00;99.90
32201;DHT22;18701;45.588;5.288;2023-01-08T04:06:05;12.00;99.90
32201;DHT22;18701;45.588;5.288;2023-01-08T04:08:31;12.10;99.90
32201;DHT22;18701;45.588;5.288;2023-01-08T04:10:56;12.10;99.90
32201;DHT22;18701;45.588;5.288;2023-01-08T04:13:22;12.10;99.90
32201;DHT22;18701;45.588;5.288;2023-01-08T04:15:48;12.10;99.90
32201;DHT22;18701;45.588;5.288;2023-01-08T04:18:15;12.10;99.90
32201;DHT22;18701;45.588;5.288;2023-01-08T04:20:44;12.10;99.90
32201;DHT22;18701;45.588;5.288;2023-01-08T04:23:10;12.10;99.90
32201;DHT22;18701;45.588;5.288;2023-01-08T04:25:36;12.10;99.90
32201;DHT22;18701;45.588;5.288;2023-01-08T04:28:03;12.10;99.90
32201;DHT22;18701;45.588;5.288;2023-01-08T04:30:28;12.10;99.90
32201;DHT22;18701;45.588;5.288;2023-01-08T04:32:54;12.10;99.90
32201;DHT22;18701;45.588;5.288;2023-01-08T04:35:19;12.10;99.90
32201;DHT22;18701;45.588;5.288;2023-01-08T04:37:45;12.00;99.90
32201;DHT22;18701;45.588;5.288;2023-01-08T04:40:11;12.10;99.90
32201;DHT22;18701;45.588;5.288;2023-01-08T04:42:36;12.10;99.90
32201;DHT22;18701;45.588;5.288;2023-01-08T04:45:02;12.10;99.90
32201;DHT22;18701;45.588;5.288;2023-01-08T04:47:28;12.10;99.90
32201;DHT22;18701;45.588;5.288;2023-01-08T04:49:53;12.10;99.90
32201;DHT22;18701;45.588;5.288;2023-01-08T04:52:19;12.10;99.90
32201;DHT22;18701;45.588;5.288;2023-01-08T04:54:44;12.10;99.90
32201;DHT22;18701;45.588;5.288;2023-01-08T04:57:10;12.10;99.90
32201;DHT22;18701;45.588;5.288;2023-01-08T04:59:36;12.10;99.90
32201;DHT22;18701;45.588;5.288;2023-01-08T05:02:01;12.10;99.90
32201;DHT22;18701;45.588;5.288;2023-01-08T05:04:27;12.10;99.90
32201;DHT22;18701;45.588;5.288;2023-01-08T05:06:53;12.10;99.90
32201;DHT22;18701;45.588;5.288;2023-01-08T05:09:18;12.10;99.90
32201;DHT22;18701;45.588;5.288;2023-01-08T05:11:44;12.10;99.90
32201;DHT22;18701;45.588;5.288;2023-01-08T05:14:09;12.10;99.90
32201;DHT22;18701;45.588;5.288;2023-01-08T05:16:35;12.10;99.90
32201;DHT22;18701;45.588;5.288;2023-01-08T05:19:01;12.10;99.90
32201;DHT22;18701;45.588;5.288;2023-01-08T05:21:26;12.10;99.90
32201;DHT22;18701;45.588;5.288;2023-01-08T05:23:52;12.10;99.90
32201;DHT22;18701;45.588;5.288;2023-01-08T05:26:17;12.10;99.90
32201;DHT22;18701;45.588;5.288;2023-01-08T05:28:44;12.10;99.90
32201;DHT22;18701;45.588;5.288;2023-01-08T05:31:10;12.10;99.90
32201;DHT22;18701;45.588;5.288;2023-01-08T05:33:37;12.10;99.90
32201;DHT22;18701;45.588;5.288;2023-01-08T05:36:07;12.10;99.90
32201;DHT22;18701;45.588;5.288;2023-01-08T05:38:33;12.00;99.90
32201;DHT22;18701;45.588;5.288;2023-01-08T05:40:59;12.10;99.90
32201;DHT22;18701;45.588;5.288;2023-01-08T05:43:25;12.00;99.90
32201;DHT22;18701;45.588;5.288;2023-01-08T05:45:51;12.00;99.90
32201;DHT22;18701;45.588;5.288;2023-01-08T05:48:16;12.00;99.90
32201;DHT22;18701;45.588;5.288;2023-01-08T05:50:42;12.00;99.90
32201;DHT22;18701;45.588;5.288;2023-01-08T05:53:08;12.00;99.90
32201;DHT22;18701;45.588;5.288;2023-01-08T05:55:34;12.00;99.90
32201;DHT22;18701;45.588;5.288;2023-01-08T05:58:01;12.00;99.90
32201;DHT22;18701;45.588;5.288;2023-01-08T06:00:27;12.00;99.90
32201;DHT22;18701;45.588;5.288;2023-01-08T06:02:53;12.00;99.90
32201;DHT22;18701;45.588;5.288;2023-01-08T06:05:19;11.90;99.90
32201;DHT22;18701;45.588;5.288;2023-01-08T06:07:44;12.00;99.90
32201;DHT22;18701;45.588;5.288;2023-01-08T06:10:10;11.90;99.90
32201;DHT22;18701;45.588;5.288;2023-01-08T06:12:35;11.90;99.90
32201;DHT22;18701;45.588;5.288;2023-01-08T06:15:02;11.90;99.90
32201;DHT22;18701;45.588;5.288;2023-01-08T06:17:28;11.90;99.90
32201;DHT22;18701;45.588;5.288;2023-01-08T06:19:53;11.90;99.90
32201;DHT22;18701;45.588;5.288;2023-01-08T06:22:19;11.90;99.90
32201;DHT22;18701;45.588;5.288;2023-01-08T06:24:44;11.90;99.90
32201;DHT22;18701;45.588;5.288;2023-01-08T06:27:10;11.80;99.90
32201;DHT22;18701;45.588;5.288;2023-01-08T06:29:36;11.80;99.90
32201;DHT22;18701;45.588;5.288;2023-01-08T06:32:01;11.80;99.90
32201;DHT22;18701;45.588;5.288;2023-01-08T06:34:27;11.80;99.90
32201;DHT22;18701;45.588;5.288;2023-01-08T06:36:52;11.80;99.90
32201;DHT22;18701;45.588;5.288;2023-01-08T06:39:18;11.70;99.90
32201;DHT22;18701;45.588;5.288;2023-01-08T06:41:44;11.70;99.90
32201;DHT22;18701;45.588;5.288;2023-01-08T06:44:09;11.70;99.90
32201;DHT22;18701;45.588;5.288;2023-01-08T06:46:35;11.70;99.90
32201;DHT22;18701;45.588;5.288;2023-01-08T06:49:08;11.60;99.90
32201;DHT22;18701;45.588;5.288;2023-01-08T06:51:34;11.60;99.90
32201;DHT22;18701;45.588;5.288;2023-01-08T06:54:00;11.60;99.90
32201;DHT22;18701;45.588;5.288;2023-01-08T06:56:25;11.60;99.90
32201;DHT22;18701;45.588;5.288;2023-01-08T06:58:51;11.50;99.90
32201;DHT22;18701;45.588;5.288;2023-01-08T07:01:17;11.50;99.90
32201;DHT22;18701;45.588;5.288;2023-01-08T07:03:42;11.50;99.90
32201;DHT22;18701;45.588;5.288;2023-01-08T07:06:15;11.40;99.90
32201;DHT22;18701;45.588;5.288;2023-01-08T07:08:42;11.40;99.90
32201;DHT22;18701;45.588;5.288;2023-01-08T07:11:08;11.40;99.90
32201;DHT22;18701;45.588;5.288;2023-01-08T07:13:33;11.40;99.90
32201;DHT22;18701;45.588;5.288;2023-01-08T07:16:04;11.50;99.90
32201;DHT22;18701;45.588;5.288;2023-01-08T07:18:30;11.50;99.90
32201;DHT22;18701;45.588;5.288;2023-01-08T07:20:56;11.40;99.90
32201;DHT22;18701;45.588;5.288;2023-01-08T07:23:22;11.40;99.90
32201;DHT22;18701;45.588;5.288;2023-01-08T07:25:47;11.50;99.90
32201;DHT22;18701;45.588;5.288;2023-01-08T07:28:13;11.50;99.90
32201;DHT22;18701;45.588;5.288;2023-01-08T07:30:39;11.50;99.90
32201;DHT22;18701;45.588;5.288;2023-01-08T07:33:04;11.50;99.90
32201;DHT22;18701;45.588;5.288;2023-01-08T07:35:30;11.50;99.90
32201;DHT22;18701;45.588;5.288;2023-01-08T07:37:56;11.50;99.90
32201;DHT22;18701;45.588;5.288;2023-01-08T07:40:22;11.50;99.90
32201;DHT22;18701;45.588;5.288;2023-01-08T07:42:47;11.60;99.90
32201;DHT22;18701;45.588;5.288;2023-01-08T07:45:13;11.60;99.90
32201;DHT22;18701;45.588;5.288;2023-01-08T07:47:39;11.50;99.90
32201;DHT22;18701;45.588;5.288;2023-01-08T07:50:05;11.60;99.90
32201;DHT22;18701;45.588;5.288;2023-01-08T07:52:30;11.70;99.90
32201;DHT22;18701;45.588;5.288;2023-01-08T07:54:56;11.60;99.90
32201;DHT22;18701;45.588;5.288;2023-01-08T07:57:21;11.60;99.90
32201;DHT22;18701;45.588;5.288;2023-01-08T07:59:47;11.60;99.90
32201;DHT22;18701;45.588;5.288;2023-01-08T08:02:13;11.60;99.90
32201;DHT22;18701;45.588;5.288;2023-01-08T08:04:38;11.70;99.90
32201;DHT22;18701;45.588;5.288;2023-01-08T08:07:04;11.70;99.90
32201;DHT22;18701;45.588;5.288;2023-01-08T08:09:29;11.70;99.90
32201;DHT22;18701;45.588;5.288;2023-01-08T08:11:55;11.70;99.90
32201;DHT22;18701;45.588;5.288;2023-01-08T08:14:21;11.70;99.90
32201;DHT22;18701;45.588;5.288;2023-01-08T08:16:46;11.70;99.90
32201;DHT22;18701;45.588;5.288;2023-01-08T08:19:12;11.70;99.90
32201;DHT22;18701;45.588;5.288;2023-01-08T08:21:38;11.70;99.90
32201;DHT22;18701;45.588;5.288;2023-01-08T08:24:04;11.70;99.90
32201;DHT22;18701;45.588;5.288;2023-01-08T08:26:29;11.70;99.90
32201;DHT22;18701;45.588;5.288;2023-01-08T08:28:55;11.70;99.90
32201;DHT22;18701;45.588;5.288;2023-01-08T08:31:21;11.70;99.90
32201;DHT22;18701;45.588;5.288;2023-01-08T08:33:46;11.70;99.90
32201;DHT22;18701;45.588;5.288;2023-01-08T08:36:12;11.70;99.90
32201;DHT22;18701;45.588;5.288;2023-01-08T08:38:38;11.70;99.90
32201;DHT22;18701;45.588;5.288;2023-01-08T08:41:04;11.70;99.90
32201;DHT22;18701;45.588;5.288;2023-01-08T08:43:30;11.80;99.90
32201;DHT22;18701;45.588;5.288;2023-01-08T08:45:56;11.80;99.90
32201;DHT22;18701;45.588;5.288;2023-01-08T08:48:22;11.80;99.90
32201;DHT22;18701;45.588;5.288;2023-01-08T08:50:48;11.80;99.90
32201;DHT22;18701;45.588;5.288;2023-01-08T08:53:14;11.90;99.90
32201;DHT22;18701;45.588;5.288;2023-01-08T08:55:39;11.90;99.90
32201;DHT22;18701;45.588;5.288;2023-01-08T08:58:10;11.80;99.90
32201;DHT22;18701;45.588;5.288;2023-01-08T09:00:37;11.90;99.90
32201;DHT22;18701;45.588;5.288;2023-01-08T09:03:03;11.90;99.90
32201;DHT22;18701;45.588;5.288;2023-01-08T09:05:29;11.80;99.90
32201;DHT22;18701;45.588;5.288;2023-01-08T09:07:55;11.70;99.90
32201;DHT22;18701;45.588;5.288;2023-01-08T09:10:22;11.70;99.90
32201;DHT22;18701;45.588;5.288;2023-01-08T09:12:48;11.80;99.90
32201;DHT22;18701;45.588;5.288;2023-01-08T09:15:13;11.80;99.90
32201;DHT22;18701;45.588;5.288;2023-01-08T09:17:39;11.70;99.90
32201;DHT22;18701;45.588;5.288;2023-01-08T09:20:05;11.80;99.90
32201;DHT22;18701;45.588;5.288;2023-01-08T09:22:31;11.80;99.90
32201;DHT22;18701;45.588;5.288;2023-01-08T09:24:57;11.80;99.90
32201;DHT22;18701;45.588;5.288;2023-01-08T09:27:22;11.80;99.90
32201;DHT22;18701;45.588;5.288;2023-01-08T09:29:48;11.80;99.90
32201;DHT22;18701;45.588;5.288;2023-01-08T09:32:13;11.90;99.90
32201;DHT22;18701;45.588;5.288;2023-01-08T09:34:39;11.80;99.90
32201;DHT22;18701;45.588;5.288;2023-01-08T09:37:05;11.80;99.90
32201;DHT22;18701;45.588;5.288;2023-01-08T09:39:31;11.80;99.90
32201;DHT22;18701;45.588;5.288;2023-01-08T09:42:00;11.80;99.90
32201;DHT22;18701;45.588;5.288;2023-01-08T09:44:29;11.80;99.90
32201;DHT22;18701;45.588;5.288;2023-01-08T09:46:56;11.80;99.90
32201;DHT22;18701;45.588;5.288;2023-01-08T09:49:27;11.90;99.90
32201;DHT22;18701;45.588;5.288;2023-01-08T09:51:54;12.00;99.90
32201;DHT22;18701;45.588;5.288;2023-01-08T09:54:22;12.00;99.90
32201;DHT22;18701;45.588;5.288;2023-01-08T09:56:48;12.10;99.90
32201;DHT22;18701;45.588;5.288;2023-01-08T09:59:17;12.20;99.90
32201;DHT22;18701;45.588;5.288;2023-01-08T10:01:43;12.20;99.90
32201;DHT22;18701;45.588;5.288;2023-01-08T10:06:41;12.30;99.90
32201;DHT22;18701;45.588;5.288;2023-01-08T10:09:12;12.50;99.90
32201;DHT22;18701;45.588;5.288;2023-01-08T10:11:42;12.60;99.90
32201;DHT22;18701;45.588;5.288;2023-01-08T10:14:27;12.50;99.90
32201;DHT22;18701;45.588;5.288;2023-01-08T10:17:01;12.70;99.90
32201;DHT22;18701;45.588;5.288;2023-01-08T10:19:29;12.70;99.90
32201;DHT22;18701;45.588;5.288;2023-01-08T10:21:55;12.70;99.90
32201;DHT22;18701;45.588;5.288;2023-01-08T10:24:36;12.70;99.90
32201;DHT22;18701;45.588;5.288;2023-01-08T10:27:21;12.70;99.90
32201;DHT22;18701;45.588;5.288;2023-01-08T10:29:51;12.70;99.90
32201;DHT22;18701;45.588;5.288;2023-01-08T10:32:29;12.90;99.90
32201;DHT22;18701;45.588;5.288;2023-01-08T10:35:03;12.90;99.90
32201;DHT22;18701;45.588;5.288;2023-01-08T10:37:40;12.80;99.90
32201;DHT22;18701;45.588;5.288;2023-01-08T10:40:40;12.80;99.90
32201;DHT22;18701;45.588;5.288;2023-01-08T10:43:18;12.80;99.90
32201;DHT22;18701;45.588;5.288;2023-01-08T10:45:59;13.00;99.90
32201;DHT22;18701;45.588;5.288;2023-01-08T10:48:53;12.90;99.90
32201;DHT22;18701;45.588;5.288;2023-01-08T10:51:22;12.90;99.90
32201;DHT22;18701;45.588;5.288;2023-01-08T10:53:49;12.70;99.90
32201;DHT22;18701;45.588;5.288;2023-01-08T10:56:22;12.70;99.90
32201;DHT22;18701;45.588;5.288;2023-01-08T10:58:48;12.70;99.90
32201;DHT22;18701;45.588;5.288;2023-01-08T11:01:27;12.80;99.90
32201;DHT22;18701;45.588;5.288;2023-01-08T11:03:59;12.80;99.90
32201;DHT22;18701;45.588;5.288;2023-01-08T11:06:30;12.90;99.90
32201;DHT22;18701;45.588;5.288;2023-01-08T11:09:12;12.80;99.90
32201;DHT22;18701;45.588;5.288;2023-01-08T11:11:39;12.70;99.90
32201;DHT22;18701;45.588;5.288;2023-01-08T11:16:52;12.70;99.90
32201;DHT22;18701;45.588;5.288;2023-01-08T11:19:26;12.80;99.90
32201;DHT22;18701;45.588;5.288;2023-01-08T11:22:04;12.70;99.90
32201;DHT22;18701;45.588;5.288;2023-01-08T11:24:35;12.60;99.90
32201;DHT22;18701;45.588;5.288;2023-01-08T11:27:31;12.50;99.90
32201;DHT22;18701;45.588;5.288;2023-01-08T11:37:37;12.70;99.90
32201;DHT22;18701;45.588;5.288;2023-01-08T11:40:12;12.70;99.90
32201;DHT22;18701;45.588;5.288;2023-01-08T11:57:02;12.60;99.90
32201;DHT22;18701;45.588;5.288;2023-01-08T11:59:47;12.40;99.90
32201;DHT22;18701;45.588;5.288;2023-01-08T12:14:18;12.80;99.90
32201;DHT22;18701;45.588;5.288;2023-01-08T12:17:14;12.90;99.90
32201;DHT22;18701;45.588;5.288;2023-01-08T12:22:35;12.90;99.90
32201;DHT22;18701;45.588;5.288;2023-01-08T12:33:34;12.90;99.90
32201;DHT22;18701;45.588;5.288;2023-01-08T12:36:07;12.90;99.90
32201;DHT22;18701;45.588;5.288;2023-01-08T12:38:36;12.90;99.90
32201;DHT22;18701;45.588;5.288;2023-01-08T12:41:13;12.90;99.90
32201;DHT22;18701;45.588;5.288;2023-01-08T12:46:27;13.10;99.90
32201;DHT22;18701;45.588;5.288;2023-01-08T12:48:55;13.20;99.90
32201;DHT22;18701;45.588;5.288;2023-01-08T12:51:48;13.20;99.90
32201;DHT22;18701;45.588;5.288;2023-01-08T12:54:26;13.20;99.90
32201;DHT22;18701;45.588;5.288;2023-01-08T12:57:08;13.10;99.90
32201;DHT22;18701;45.588;5.288;2023-01-08T13:03:20;13.10;99.90
32201;DHT22;18701;45.588;5.288;2023-01-08T13:07:55;13.00;99.90
32201;DHT22;18701;45.588;5.288;2023-01-08T13:12:51;12.80;99.90
32201;DHT22;18701;45.588;5.288;2023-01-08T13:15:27;12.80;99.90
32201;DHT22;18701;45.588;5.288;2023-01-08T13:17:55;12.80;99.90
32201;DHT22;18701;45.588;5.288;2023-01-08T13:20:26;12.80;99.90
32201;DHT22;18701;45.588;5.288;2023-01-08T13:22:58;12.60;99.90
32201;DHT22;18701;45.588;5.288;2023-01-08T13:27:50;12.70;99.90
32201;DHT22;18701;45.588;5.288;2023-01-08T13:30:41;12.70;99.90
32201;DHT22;18701;45.588;5.288;2023-01-08T13:38:36;12.80;99.90
32201;DHT22;18701;45.588;5.288;2023-01-08T13:41:02;12.80;99.90
32201;DHT22;18701;45.588;5.288;2023-01-08T13:43:35;12.70;99.90
32201;DHT22;18701;45.588;5.288;2023-01-08T13:48:49;12.60;99.90
32201;DHT22;18701;45.588;5.288;2023-01-08T13:54:16;12.50;99.90
32201;DHT22;18701;45.588;5.288;2023-01-08T13:56:47;12.40;99.90
32201;DHT22;18701;45.588;5.288;2023-01-08T14:01:56;12.40;99.90
32201;DHT22;18701;45.588;5.288;2023-01-08T14:04:24;12.50;99.90
32201;DHT22;18701;45.588;5.288;2023-01-08T14:06:50;12.40;99.90
32201;DHT22;18701;45.588;5.288;2023-01-08T14:09:23;12.40;99.90
32201;DHT22;18701;45.588;5.288;2023-01-08T14:11:52;12.40;99.90
32201;DHT22;18701;45.588;5.288;2023-01-08T14:14:21;12.30;99.90
32201;DHT22;18701;45.588;5.288;2023-01-08T14:16:50;12.30;99.90
32201;DHT22;18701;45.588;5.288;2023-01-08T14:19:24;12.40;99.90
32201;DHT22;18701;45.588;5.288;2023-01-08T14:21:55;12.20;99.90
32201;DHT22;18701;45.588;5.288;2023-01-08T14:24:23;12.20;99.90
32201;DHT22;18701;45.588;5.288;2023-01-08T14:26:53;12.20;99.90
32201;DHT22;18701;45.588;5.288;2023-01-08T14:29:23;12.20;99.90
32201;DHT22;18701;45.588;5.288;2023-01-08T14:31:51;12.30;99.90
32201;DHT22;18701;45.588;5.288;2023-01-08T14:34:19;12.20;99.90
32201;DHT22;18701;45.588;5.288;2023-01-08T14:36:46;12.20;99.90
32201;DHT22;18701;45.588;5.288;2023-01-08T14:39:24;12.20;99.90
32201;DHT22;18701;45.588;5.288;2023-01-08T14:41:53;12.20;99.90
32201;DHT22;18701;45.588;5.288;2023-01-08T14:44:39;12.20;99.90
32201;DHT22;18701;45.588;5.288;2023-01-08T14:47:05;12.20;99.90
32201;DHT22;18701;45.588;5.288;2023-01-08T14:49:37;12.10;99.90
32201;DHT22;18701;45.588;5.288;2023-01-08T14:52:10;12.10;99.90
32201;DHT22;18701;45.588;5.288;2023-01-08T14:54:37;12.10;99.90
32201;DHT22;18701;45.588;5.288;2023-01-08T14:57:03;12.10;99.90
32201;DHT22;18701;45.588;5.288;2023-01-08T14:59:34;12.20;99.90
32201;DHT22;18701;45.588;5.288;2023-01-08T15:02:03;12.20;99.90
32201;DHT22;18701;45.588;5.288;2023-01-08T15:04:30;12.10;99.90
32201;DHT22;18701;45.588;5.288;2023-01-08T15:07:18;12.10;99.90
32201;DHT22;18701;45.588;5.288;2023-01-08T15:09:57;12.10;99.90
32201;DHT22;18701;45.588;5.288;2023-01-08T15:12:25;12.10;99.90
32201;DHT22;18701;45.588;5.288;2023-01-08T15:14:51;12.00;99.90
32201;DHT22;18701;45.588;5.288;2023-01-08T15:17:21;12.00;99.90
32201;DHT22;18701;45.588;5.288;2023-01-08T15:19:56;12.00;99.90
32201;DHT22;18701;45.588;5.288;2023-01-08T15:22:25;12.00;99.90
32201;DHT22;18701;45.588;5.288;2023-01-08T15:25:20;12.00;99.90
32201;DHT22;18701;45.588;5.288;2023-01-08T15:27:59;12.00;99.90
32201;DHT22;18701;45.588;5.288;2023-01-08T15:30:36;11.90;99.90
32201;DHT22;18701;45.588;5.288;2023-01-08T15:33:27;12.00;99.90
32201;DHT22;18701;45.588;5.288;2023-01-08T15:35:53;12.00;99.90
32201;DHT22;18701;45.588;5.288;2023-01-08T15:38:19;12.10;99.90
32201;DHT22;18701;45.588;5.288;2023-01-08T15:40:46;12.10;99.90
32201;DHT22;18701;45.588;5.288;2023-01-08T15:43:16;12.00;99.90
32201;DHT22;18701;45.588;5.288;2023-01-08T15:45:45;12.10;99.90
32201;DHT22;18701;45.588;5.288;2023-01-08T15:48:11;12.00;99.90
32201;DHT22;18701;45.588;5.288;2023-01-08T15:50:39;12.00;99.90
32201;DHT22;18701;45.588;5.288;2023-01-08T15:53:09;11.90;99.90
32201;DHT22;18701;45.588;5.288;2023-01-08T15:55:35;12.00;99.90
32201;DHT22;18701;45.588;5.288;2023-01-08T15:58:01;12.00;99.90
32201;DHT22;18701;45.588;5.288;2023-01-08T16:00:27;12.00;99.90
32201;DHT22;18701;45.588;5.288;2023-01-08T16:02:53;12.00;99.90
32201;DHT22;18701;45.588;5.288;2023-01-08T16:05:21;11.90;99.90
32201;DHT22;18701;45.588;5.288;2023-01-08T16:07:47;11.90;99.90
32201;DHT22;18701;45.588;5.288;2023-01-08T16:10:16;11.90;99.90
32201;DHT22;18701;45.588;5.288;2023-01-08T16:12:42;11.80;99.90
32201;DHT22;18701;45.588;5.288;2023-01-08T16:15:09;11.90;99.90
32201;DHT22;18701;45.588;5.288;2023-01-08T16:17:35;11.90;99.90
32201;DHT22;18701;45.588;5.288;2023-01-08T16:20:02;11.80;99.90
32201;DHT22;18701;45.588;5.288;2023-01-08T16:22:28;11.90;99.90
32201;DHT22;18701;45.588;5.288;2023-01-08T16:24:54;11.90;99.90
32201;DHT22;18701;45.588;5.288;2023-01-08T16:27:20;11.80;99.90
32201;DHT22;18701;45.588;5.288;2023-01-08T16:29:45;11.90;99.90
32201;DHT22;18701;45.588;5.288;2023-01-08T16:32:11;11.90;99.90
32201;DHT22;18701;45.588;5.288;2023-01-08T16:34:36;11.90;99.90
32201;DHT22;18701;45.588;5.288;2023-01-08T16:37:02;11.90;99.90
32201;DHT22;18701;45.588;5.288;2023-01-08T16:39:28;11.90;99.90
32201;DHT22;18701;45.588;5.288;2023-01-08T16:41:53;11.80;99.90
32201;DHT22;18701;45.588;5.288;2023-01-08T16:44:24;11.90;99.90
32201;DHT22;18701;45.588;5.288;2023-01-08T16:46:50;11.80;99.90
32201;DHT22;18701;45.588;5.288;2023-01-08T16:49:15;11.80;99.90
32201;DHT22;18701;45.588;5.288;2023-01-08T16:51:41;11.80;99.90
32201;DHT22;18701;45.588;5.288;2023-01-08T16:54:11;11.80;99.90
32201;DHT22;18701;45.588;5.288;2023-01-08T16:56:36;11.70;99.90
32201;DHT22;18701;45.588;5.288;2023-01-08T16:59:02;11.70;99.90
32201;DHT22;18701;45.588;5.288;2023-01-08T17:01:28;11.70;99.90
32201;DHT22;18701;45.588;5.288;2023-01-08T17:03:53;11.80;99.90
32201;DHT22;18701;45.588;5.288;2023-01-08T17:06:19;11.70;99.90
32201;DHT22;18701;45.588;5.288;2023-01-08T17:08:44;11.70;99.90
32201;DHT22;18701;45.588;5.288;2023-01-08T17:11:16;11.70;99.90